createdAt,value
2019-05-17T00:00:03.140Z,9.80
2019-05-17T00:00:38.288Z,9.80
2019-05-17T00:01:13.607Z,9.80
2019-05-17T00:01:48.548Z,9.80
2019-05-17T00:02:23.623Z,9.80
2019-05-17T00:02:58.332Z,9.80
2019-05-17T00:03:33.295Z,9.70
2019-05-17T00:04:08.366Z,9.70
2019-05-17T00:04:43.102Z,9.70
2019-05-17T00:05:18.132Z,9.70
2019-05-17T00:05:53.273Z,9.70
2019-05-17T00:06:28.045Z,9.60
2019-05-17T00:07:03.163Z,9.70
2019-05-17T00:07:38.235Z,9.60
2019-05-17T00:08:13.061Z,9.60
2019-05-17T00:08:48.024Z,9.60
2019-05-17T00:09:23.457Z,9.60
2019-05-17T00:09:58.301Z,9.60
2019-05-17T00:10:33.356Z,9.60
2019-05-17T00:11:08.522Z,9.60
2019-05-17T00:11:43.389Z,9.60
2019-05-17T00:12:18.393Z,9.60
2019-05-17T00:12:53.544Z,9.60
2019-05-17T00:13:28.428Z,9.60
2019-05-17T00:14:03.465Z,9.60
2019-05-17T00:14:38.612Z,9.60
2019-05-17T00:15:16.810Z,9.60
2019-05-17T00:15:51.049Z,9.60
2019-05-17T00:16:26.803Z,9.60
2019-05-17T00:17:01.736Z,9.60
2019-05-17T00:17:37.604Z,9.60
2019-05-17T00:18:16.966Z,9.60
2019-05-17T00:18:49.515Z,9.60
2019-05-17T00:19:26.290Z,9.60
2019-05-17T00:20:01.244Z,9.60
2019-05-17T00:20:37.562Z,9.60
2019-05-17T00:21:12.705Z,9.60
2019-05-17T00:21:47.845Z,9.60
2019-05-17T00:22:22.545Z,9.70
2019-05-17T00:22:57.534Z,9.70
2019-05-17T00:23:32.644Z,9.70
2019-05-17T00:24:07.442Z,9.70
2019-05-17T00:24:42.381Z,9.70
2019-05-17T00:25:17.791Z,9.70
2019-05-17T00:25:52.943Z,9.70
2019-05-17T00:26:27.940Z,9.70
2019-05-17T00:27:03.013Z,9.70
2019-05-17T00:27:38.332Z,9.70
2019-05-17T00:28:13.292Z,9.70
2019-05-17T00:28:48.515Z,9.60
2019-05-17T00:29:23.284Z,9.70
2019-05-17T00:29:58.187Z,9.70
2019-05-17T00:30:33.322Z,9.70
2019-05-17T00:31:08.032Z,9.70
2019-05-17T00:31:43.192Z,9.70
2019-05-17T00:32:18.562Z,9.70
2019-05-17T00:32:53.259Z,9.70
2019-05-17T00:33:28.158Z,9.70
2019-05-17T00:34:03.234Z,9.60
2019-05-17T00:34:38.099Z,9.60
2019-05-17T00:35:13.319Z,9.60
2019-05-17T00:35:48.472Z,9.60
2019-05-17T00:36:23.242Z,9.60
2019-05-17T00:36:58.120Z,9.60
2019-05-17T00:37:33.199Z,9.60
2019-05-17T00:38:08.308Z,9.60
2019-05-17T00:38:48.371Z,9.60
2019-05-17T00:39:20.015Z,9.60
2019-05-17T00:39:56.713Z,9.60
2019-05-17T00:40:31.378Z,9.60
2019-05-17T00:41:07.106Z,9.60
2019-05-17T00:41:42.024Z,9.60
2019-05-17T00:42:17.217Z,9.60
2019-05-17T00:42:57.067Z,9.60
2019-05-17T00:43:32.034Z,9.60
2019-05-17T00:44:06.956Z,9.60
2019-05-17T00:44:42.061Z,9.60
2019-05-17T00:45:17.517Z,9.60
2019-05-17T00:45:52.794Z,9.60
2019-05-17T00:46:27.941Z,9.60
2019-05-17T00:47:02.762Z,9.60
2019-05-17T00:47:37.722Z,9.60
2019-05-17T00:48:12.898Z,9.60
2019-05-17T00:48:47.614Z,9.60
2019-05-17T00:49:22.579Z,9.60
2019-05-17T00:49:57.770Z,9.70
2019-05-17T00:50:32.477Z,9.60
2019-05-17T00:51:10.080Z,9.60
2019-05-17T00:51:44.228Z,9.60
2019-05-17T00:52:18.998Z,9.60
2019-05-17T00:52:54.023Z,9.60
2019-05-17T00:53:29.150Z,9.60
2019-05-17T00:54:04.071Z,9.60
2019-05-17T00:54:39.014Z,9.60
2019-05-17T00:55:14.602Z,9.60
2019-05-17T00:55:49.292Z,9.60
2019-05-17T00:56:26.476Z,9.50
2019-05-17T00:57:00.985Z,9.50
2019-05-17T00:57:36.831Z,9.50
2019-05-17T00:58:12.054Z,9.50
2019-05-17T00:58:47.737Z,9.50
2019-05-17T00:59:22.768Z,9.50
2019-05-17T00:59:58.019Z,9.50
2019-05-17T01:00:33.156Z,9.50
2019-05-17T01:01:08.607Z,9.50
2019-05-17T01:01:43.625Z,9.50
2019-05-17T01:02:18.749Z,9.50
2019-05-17T01:02:53.586Z,9.60
2019-05-17T01:03:28.869Z,9.50
2019-05-17T01:04:04.080Z,9.50
2019-05-17T01:04:38.853Z,9.50
2019-05-17T01:05:14.185Z,9.50
2019-05-17T01:05:49.406Z,9.50
2019-05-17T01:06:24.162Z,9.50
2019-05-17T01:06:59.136Z,9.50
2019-05-17T01:07:34.284Z,9.50
2019-05-17T01:08:09.057Z,9.60
2019-05-17T01:08:46.370Z,9.50
2019-05-17T01:09:20.815Z,9.50
2019-05-17T01:09:56.547Z,9.50
2019-05-17T01:10:31.808Z,9.50
2019-05-17T01:11:07.240Z,9.50
2019-05-17T01:11:42.177Z,9.50
2019-05-17T01:12:17.146Z,9.50
2019-05-17T01:12:52.576Z,9.50
2019-05-17T01:13:27.792Z,9.50
2019-05-17T01:14:02.872Z,9.50
2019-05-17T01:14:38.013Z,9.50
2019-05-17T01:15:13.465Z,9.50
2019-05-17T01:15:48.412Z,9.50
2019-05-17T01:16:23.492Z,9.40
2019-05-17T01:16:58.296Z,9.50
2019-05-17T01:17:33.289Z,9.40
2019-05-17T01:18:08.384Z,9.40
2019-05-17T01:18:43.082Z,9.40
2019-05-17T01:19:17.957Z,9.40
2019-05-17T01:19:53.072Z,9.40
2019-05-17T01:20:27.847Z,9.40
2019-05-17T01:21:03.107Z,9.40
2019-05-17T01:21:38.348Z,9.40
2019-05-17T01:22:13.163Z,9.40
2019-05-17T01:22:48.204Z,9.40
2019-05-17T01:23:23.415Z,9.40
2019-05-17T01:23:58.193Z,9.40
2019-05-17T01:24:33.072Z,9.40
2019-05-17T01:25:09.182Z,9.50
2019-05-17T01:25:43.909Z,9.40
2019-05-17T01:26:18.861Z,9.40
2019-05-17T01:26:54.215Z,9.50
2019-05-17T01:27:28.921Z,9.40
2019-05-17T01:28:03.925Z,9.40
2019-05-17T01:28:39.146Z,9.40
2019-05-17T01:29:13.871Z,9.40
2019-05-17T01:29:48.815Z,9.40
2019-05-17T01:30:26.504Z,9.40
2019-05-17T01:31:00.763Z,9.40
2019-05-17T01:31:37.407Z,9.40
2019-05-17T01:32:12.644Z,9.40
2019-05-17T01:32:47.595Z,9.30
2019-05-17T01:33:22.510Z,9.30
2019-05-17T01:33:57.674Z,9.30
2019-05-17T01:34:32.520Z,9.30
2019-05-17T01:35:07.666Z,9.30
2019-05-17T01:35:42.810Z,9.30
2019-05-17T01:36:17.531Z,9.30
2019-05-17T01:36:52.478Z,9.30
2019-05-17T01:37:27.842Z,9.20
2019-05-17T01:38:02.886Z,9.30
2019-05-17T01:38:37.943Z,9.20
2019-05-17T01:39:17.853Z,9.20
2019-05-17T01:39:49.598Z,9.20
2019-05-17T01:40:26.380Z,9.20
2019-05-17T01:41:01.240Z,9.20
2019-05-17T01:41:37.235Z,9.20
2019-05-17T01:42:12.413Z,9.20
2019-05-17T01:42:47.469Z,9.20
2019-05-17T01:43:22.198Z,9.20
2019-05-17T01:43:57.239Z,9.20
2019-05-17T01:44:32.318Z,9.20
2019-05-17T01:45:07.819Z,9.20
2019-05-17T01:45:42.791Z,9.20
2019-05-17T01:46:18.034Z,9.20
2019-05-17T01:46:52.805Z,9.20
2019-05-17T01:47:27.677Z,9.20
2019-05-17T01:48:02.763Z,9.20
2019-05-17T01:48:37.465Z,9.20
2019-05-17T01:49:12.350Z,9.20
2019-05-17T01:49:47.455Z,9.20
2019-05-17T01:50:22.174Z,9.20
2019-05-17T01:50:57.118Z,9.20
2019-05-17T01:51:32.197Z,9.20
2019-05-17T01:52:07.457Z,9.20
2019-05-17T01:52:42.728Z,9.20
2019-05-17T01:53:17.855Z,9.20
2019-05-17T01:53:52.566Z,9.20
2019-05-17T01:54:27.465Z,9.20
2019-05-17T01:55:02.635Z,9.20
2019-05-17T01:55:37.724Z,9.20
2019-05-17T01:56:12.817Z,9.20
2019-05-17T01:56:48.012Z,9.10
2019-05-17T01:57:22.783Z,9.10
2019-05-17T01:57:57.744Z,9.10
2019-05-17T01:58:32.874Z,9.10
2019-05-17T01:59:07.577Z,9.10
2019-05-17T01:59:42.466Z,9.10
2019-05-17T02:00:18.073Z,9.10
2019-05-17T02:00:52.928Z,9.10
2019-05-17T02:01:28.257Z,9.00
2019-05-17T02:02:07.013Z,9.00
2019-05-17T02:02:47.152Z,9.00
2019-05-17T02:03:21.685Z,9.00
2019-05-17T02:03:57.495Z,9.00
2019-05-17T02:04:32.639Z,9.10
2019-05-17T02:05:08.788Z,9.00
2019-05-17T02:05:43.985Z,9.00
2019-05-17T02:06:18.798Z,9.00
2019-05-17T02:06:54.033Z,9.00
2019-05-17T02:07:29.178Z,9.00
2019-05-17T02:08:06.436Z,9.00
2019-05-17T02:08:40.782Z,9.00
2019-05-17T02:09:32.348Z,9.00
2019-05-17T02:09:52.366Z,9.00
2019-05-17T02:10:27.605Z,9.00
2019-05-17T02:11:02.752Z,9.00
2019-05-17T02:11:37.915Z,9.00
2019-05-17T02:12:13.048Z,9.00
2019-05-17T02:12:49.075Z,9.00
2019-05-17T02:13:24.082Z,9.00
2019-05-17T02:13:59.025Z,9.00
2019-05-17T02:14:34.205Z,8.90
2019-05-17T02:15:11.337Z,9.00
2019-05-17T02:15:46.981Z,9.00
2019-05-17T02:16:22.366Z,8.90
2019-05-17T02:16:57.409Z,8.90
2019-05-17T02:17:32.631Z,8.90
2019-05-17T02:18:07.947Z,8.90
2019-05-17T02:18:42.712Z,8.90
2019-05-17T02:19:17.611Z,8.90
2019-05-17T02:19:52.762Z,8.90
2019-05-17T02:20:27.643Z,8.90
2019-05-17T02:21:02.599Z,8.90
2019-05-17T02:21:39.131Z,8.90
2019-05-17T02:22:16.575Z,8.90
2019-05-17T02:22:51.052Z,8.90
2019-05-17T02:23:27.054Z,8.90
2019-05-17T02:24:01.984Z,8.90
2019-05-17T02:24:37.132Z,8.80
2019-05-17T02:25:13.266Z,8.90
2019-05-17T02:25:48.028Z,8.90
2019-05-17T02:26:23.027Z,8.90
2019-05-17T02:26:58.170Z,8.80
2019-05-17T02:27:38.246Z,8.80
2019-05-17T02:28:12.229Z,8.80
2019-05-17T02:28:47.065Z,8.80
2019-05-17T02:29:21.753Z,8.80
2019-05-17T02:29:56.738Z,8.80
2019-05-17T02:30:33.757Z,8.80
2019-05-17T02:31:08.435Z,8.80
2019-05-17T02:31:43.848Z,8.80
2019-05-17T02:32:19.389Z,8.80
2019-05-17T02:32:54.347Z,8.80
2019-05-17T02:33:29.423Z,8.80
2019-05-17T02:34:04.588Z,8.80
2019-05-17T02:34:42.795Z,8.80
2019-05-17T02:35:16.321Z,8.80
2019-05-17T02:35:53.643Z,8.80
2019-05-17T02:36:28.057Z,8.80
2019-05-17T02:37:03.224Z,8.80
2019-05-17T02:37:38.512Z,8.80
2019-05-17T02:38:13.487Z,8.70
2019-05-17T02:38:48.478Z,8.80
2019-05-17T02:39:23.676Z,8.70
2019-05-17T02:40:04.626Z,8.70
2019-05-17T02:40:35.051Z,8.70
2019-05-17T02:41:13.823Z,8.70
2019-05-17T02:41:46.694Z,8.70
2019-05-17T02:42:22.438Z,8.70
2019-05-17T02:42:57.739Z,8.70
2019-05-17T02:43:33.692Z,8.70
2019-05-17T02:44:08.843Z,8.70
2019-05-17T02:44:44.002Z,8.70
2019-05-17T02:45:18.847Z,8.60
2019-05-17T02:45:53.829Z,8.70
2019-05-17T02:46:29.019Z,8.70
2019-05-17T02:47:04.102Z,8.70
2019-05-17T02:47:39.063Z,8.60
2019-05-17T02:48:14.224Z,8.70
2019-05-17T02:48:48.983Z,8.60
2019-05-17T02:49:23.971Z,8.60
2019-05-17T02:49:59.092Z,8.60
2019-05-17T02:50:33.881Z,8.60
2019-05-17T02:51:08.785Z,8.60
2019-05-17T02:51:43.952Z,8.60
2019-05-17T02:52:18.678Z,8.60
2019-05-17T02:52:53.645Z,8.60
2019-05-17T02:53:28.776Z,8.60
2019-05-17T02:54:04.321Z,8.60
2019-05-17T02:54:39.430Z,8.50
2019-05-17T02:55:15.242Z,8.50
2019-05-17T02:55:50.011Z,8.50
2019-05-17T02:56:25.019Z,8.50
2019-05-17T02:57:02.832Z,8.50
2019-05-17T02:57:36.563Z,8.50
2019-05-17T02:58:12.764Z,8.50
2019-05-17T02:58:48.062Z,8.50
2019-05-17T02:59:23.300Z,8.50
2019-05-17T02:59:58.352Z,8.50
2019-05-17T03:00:34.440Z,8.50
2019-05-17T03:01:12.429Z,8.50
2019-05-17T03:01:46.197Z,8.50
2019-05-17T03:02:27.031Z,8.50
2019-05-17T03:02:57.715Z,8.50
2019-05-17T03:03:32.610Z,8.50
2019-05-17T03:04:08.044Z,8.50
2019-05-17T03:04:43.426Z,8.50
2019-05-17T03:05:18.598Z,8.50
2019-05-17T03:05:53.906Z,8.50
2019-05-17T03:06:28.720Z,8.50
2019-05-17T03:07:04.146Z,8.50
2019-05-17T03:07:39.485Z,8.50
2019-05-17T03:08:14.280Z,8.50
2019-05-17T03:08:52.255Z,8.50
2019-05-17T03:09:26.119Z,8.50
2019-05-17T03:10:16.452Z,8.50
2019-05-17T03:10:37.938Z,8.50
2019-05-17T03:11:13.680Z,8.50
2019-05-17T03:11:48.561Z,8.50
2019-05-17T03:12:23.784Z,8.50
2019-05-17T03:12:59.081Z,8.50
2019-05-17T03:13:33.905Z,8.50
2019-05-17T03:14:08.853Z,8.50
2019-05-17T03:14:43.971Z,8.50
2019-05-17T03:15:18.674Z,8.50
2019-05-17T03:15:53.648Z,8.50
2019-05-17T03:16:29.120Z,8.50
2019-05-17T03:17:03.914Z,8.40
2019-05-17T03:17:38.977Z,8.40
2019-05-17T03:18:14.184Z,8.40
2019-05-17T03:18:48.984Z,8.40
2019-05-17T03:19:23.989Z,8.40
2019-05-17T03:19:59.119Z,8.40
2019-05-17T03:20:33.844Z,8.40
2019-05-17T03:21:08.794Z,8.40
2019-05-17T03:21:43.967Z,8.40
2019-05-17T03:22:18.840Z,8.40
2019-05-17T03:22:53.788Z,8.40
2019-05-17T03:23:28.856Z,8.40
2019-05-17T03:24:04.980Z,8.40
2019-05-17T03:24:40.211Z,8.40
2019-05-17T03:25:15.394Z,8.40
2019-05-17T03:25:52.519Z,8.40
2019-05-17T03:26:26.770Z,8.40
2019-05-17T03:27:02.991Z,8.40
2019-05-17T03:27:37.985Z,8.40
2019-05-17T03:28:13.531Z,8.40
2019-05-17T03:28:48.805Z,8.40
2019-05-17T03:29:23.575Z,8.40
2019-05-17T03:29:58.475Z,8.40
2019-05-17T03:30:36.796Z,8.30
2019-05-17T03:31:17.161Z,8.30
2019-05-17T03:31:57.578Z,8.30
2019-05-17T03:32:26.475Z,8.30
2019-05-17T03:33:06.945Z,8.30
2019-05-17T03:33:38.937Z,8.20
2019-05-17T03:34:16.930Z,8.20
2019-05-17T03:34:55.949Z,8.20
2019-05-17T03:35:28.019Z,8.20
2019-05-17T03:36:06.549Z,8.20
2019-05-17T03:36:40.053Z,8.20
2019-05-17T03:37:16.845Z,8.20
2019-05-17T03:37:53.266Z,8.20
2019-05-17T03:38:28.201Z,8.20
2019-05-17T03:39:03.376Z,8.20
2019-05-17T03:39:38.942Z,8.20
2019-05-17T03:40:30.578Z,8.20
2019-05-17T03:41:09.339Z,8.20
2019-05-17T03:41:29.273Z,8.20
2019-05-17T03:42:03.683Z,8.20
2019-05-17T03:42:38.805Z,8.20
2019-05-17T03:43:14.042Z,8.20
2019-05-17T03:43:48.858Z,8.20
2019-05-17T03:44:23.807Z,8.20
2019-05-17T03:44:58.895Z,8.20
2019-05-17T03:45:34.383Z,8.20
2019-05-17T03:46:09.428Z,8.20
2019-05-17T03:46:44.558Z,8.20
2019-05-17T03:47:22.447Z,8.20
2019-05-17T03:47:55.873Z,8.20
2019-05-17T03:48:33.404Z,8.20
2019-05-17T03:49:07.423Z,8.20
2019-05-17T03:49:43.698Z,8.20
2019-05-17T03:50:22.476Z,8.20
2019-05-17T03:50:55.498Z,8.20
2019-05-17T03:51:33.232Z,8.20
2019-05-17T03:52:07.260Z,8.20
2019-05-17T03:52:44.386Z,8.20
2019-05-17T03:53:19.010Z,8.20
2019-05-17T03:53:54.184Z,8.20
2019-05-17T03:54:28.970Z,8.20
2019-05-17T03:55:05.452Z,8.20
2019-05-17T03:55:42.985Z,8.20
2019-05-17T03:56:17.177Z,8.20
2019-05-17T03:56:53.217Z,8.20
2019-05-17T03:57:28.695Z,8.20
2019-05-17T03:58:03.800Z,8.20
2019-05-17T03:58:38.872Z,8.20
2019-05-17T03:59:14.022Z,8.20
2019-05-17T03:59:52.235Z,8.20
2019-05-17T04:00:25.817Z,8.20
2019-05-17T04:01:04.004Z,8.20
2019-05-17T04:01:37.433Z,8.20
2019-05-17T04:02:12.526Z,8.20
2019-05-17T04:02:47.732Z,8.30
2019-05-17T04:03:23.157Z,8.20
2019-05-17T04:03:58.386Z,8.20
2019-05-17T04:04:33.582Z,8.20
2019-05-17T04:05:08.727Z,8.30
2019-05-17T04:05:44.109Z,8.20
2019-05-17T04:06:19.261Z,8.30
2019-05-17T04:06:54.149Z,8.20
2019-05-17T04:07:32.568Z,8.20
2019-05-17T04:08:06.049Z,8.20
2019-05-17T04:08:42.474Z,8.20
2019-05-17T04:09:17.644Z,8.20
2019-05-17T04:09:53.416Z,8.20
2019-05-17T04:10:28.305Z,8.20
2019-05-17T04:11:20.781Z,8.20
2019-05-17T04:11:42.931Z,8.20
2019-05-17T04:12:17.603Z,8.20
2019-05-17T04:12:53.221Z,8.20
2019-05-17T04:13:28.538Z,8.20
2019-05-17T04:14:03.471Z,8.20
2019-05-17T04:14:38.736Z,8.20
2019-05-17T04:15:15.795Z,8.20
2019-05-17T04:15:53.105Z,8.20
2019-05-17T04:16:27.116Z,8.20
2019-05-17T04:17:03.017Z,8.30
2019-05-17T04:17:38.477Z,8.30
2019-05-17T04:18:13.514Z,8.30
2019-05-17T04:18:48.658Z,8.30
2019-05-17T04:19:23.468Z,8.40
2019-05-17T04:19:58.419Z,8.40
2019-05-17T04:20:33.823Z,8.40
2019-05-17T04:21:08.688Z,8.40
2019-05-17T04:21:43.657Z,8.40
2019-05-17T04:22:18.779Z,8.30
2019-05-17T04:22:56.749Z,8.40
2019-05-17T04:23:33.895Z,8.40
2019-05-17T04:24:08.542Z,8.30
2019-05-17T04:24:43.960Z,8.30
2019-05-17T04:25:19.149Z,8.30
2019-05-17T04:25:54.358Z,8.30
2019-05-17T04:26:32.297Z,8.40
2019-05-17T04:27:06.120Z,8.40
2019-05-17T04:27:43.591Z,8.40
2019-05-17T04:28:17.902Z,8.40
2019-05-17T04:28:53.390Z,8.40
2019-05-17T04:29:28.849Z,8.40
2019-05-17T04:30:04.496Z,8.40
2019-05-17T04:30:39.492Z,8.50
2019-05-17T04:31:14.617Z,8.50
2019-05-17T04:31:49.339Z,8.50
2019-05-17T04:32:24.299Z,8.50
2019-05-17T04:32:59.371Z,8.60
2019-05-17T04:33:34.143Z,8.50
2019-05-17T04:34:09.102Z,8.50
2019-05-17T04:34:44.238Z,8.60
2019-05-17T04:35:19.046Z,8.60
2019-05-17T04:35:54.273Z,8.60
2019-05-17T04:36:32.179Z,8.60
2019-05-17T04:37:05.896Z,8.60
2019-05-17T04:37:43.882Z,8.60
2019-05-17T04:38:17.672Z,8.60
2019-05-17T04:38:52.662Z,8.60
2019-05-17T04:39:27.780Z,8.60
2019-05-17T04:40:03.735Z,8.70
2019-05-17T04:40:38.744Z,8.70
2019-05-17T04:41:13.714Z,8.70
2019-05-17T04:41:51.048Z,8.70
2019-05-17T04:42:25.482Z,8.70
2019-05-17T04:43:02.951Z,8.70
2019-05-17T04:43:37.502Z,8.70
2019-05-17T04:44:12.916Z,8.80
2019-05-17T04:44:47.964Z,8.80
2019-05-17T04:45:24.173Z,8.80
2019-05-17T04:46:02.451Z,8.80
2019-05-17T04:46:35.546Z,8.80
2019-05-17T04:47:13.376Z,8.80
2019-05-17T04:47:47.213Z,8.80
2019-05-17T04:48:23.294Z,8.80
2019-05-17T04:48:58.675Z,8.80
2019-05-17T04:49:33.500Z,8.80
2019-05-17T04:50:08.773Z,8.90
2019-05-17T04:50:43.909Z,8.90
2019-05-17T04:51:18.602Z,8.90
2019-05-17T04:51:53.497Z,8.90
2019-05-17T04:52:28.639Z,8.90
2019-05-17T04:53:03.517Z,8.90
2019-05-17T04:53:38.468Z,8.90
2019-05-17T04:54:14.072Z,8.90
2019-05-17T04:54:48.971Z,8.90
2019-05-17T04:55:23.925Z,8.90
2019-05-17T04:55:59.062Z,8.90
2019-05-17T04:56:33.853Z,8.90
2019-05-17T04:57:08.800Z,8.90
2019-05-17T04:57:44.468Z,9.00
2019-05-17T04:58:23.023Z,8.90
2019-05-17T04:58:56.076Z,8.90
2019-05-17T04:59:33.837Z,8.90
2019-05-17T05:00:12.660Z,8.90
2019-05-17T05:00:45.949Z,8.90
2019-05-17T05:01:23.640Z,8.90
2019-05-17T05:01:57.532Z,8.90
2019-05-17T05:02:33.251Z,8.90
2019-05-17T05:03:12.607Z,8.90
2019-05-17T05:03:46.554Z,9.00
2019-05-17T05:04:22.610Z,9.00
2019-05-17T05:04:57.959Z,9.00
2019-05-17T05:05:33.222Z,9.10
2019-05-17T05:06:08.825Z,9.00
2019-05-17T05:06:44.459Z,9.00
2019-05-17T05:07:19.185Z,9.10
2019-05-17T05:07:54.223Z,9.10
2019-05-17T05:08:29.370Z,9.10
2019-05-17T05:09:06.356Z,9.10
2019-05-17T05:09:42.951Z,9.20
2019-05-17T05:10:18.174Z,9.20
2019-05-17T05:10:53.724Z,9.20
2019-05-17T05:11:28.778Z,9.20
2019-05-17T05:12:06.069Z,9.20
2019-05-17T05:12:43.434Z,9.10
2019-05-17T05:13:17.980Z,9.20
2019-05-17T05:13:53.347Z,9.20
2019-05-17T05:14:28.108Z,9.20
2019-05-17T05:15:03.793Z,9.20
2019-05-17T05:15:44.428Z,9.20
2019-05-17T05:16:22.443Z,9.20
2019-05-17T05:16:56.093Z,9.20
2019-05-17T05:17:32.911Z,9.20
2019-05-17T05:18:07.679Z,9.20
2019-05-17T05:18:42.577Z,9.30
2019-05-17T05:19:17.733Z,9.30
2019-05-17T05:19:53.019Z,9.30
2019-05-17T05:20:28.112Z,9.40
2019-05-17T05:21:03.773Z,9.40
2019-05-17T05:21:38.916Z,9.40
2019-05-17T05:22:17.415Z,9.50
2019-05-17T05:22:52.705Z,9.50
2019-05-17T05:23:59.815Z,9.40
2019-05-17T05:24:35.010Z,9.50
2019-05-17T05:25:12.407Z,9.50
2019-05-17T05:25:46.562Z,9.50
2019-05-17T05:26:22.248Z,9.50
2019-05-17T05:26:57.652Z,9.50
2019-05-17T05:27:32.287Z,9.60
2019-05-17T05:28:07.460Z,9.60
2019-05-17T05:28:42.534Z,9.60
2019-05-17T05:29:17.102Z,9.60
2019-05-17T05:29:53.148Z,9.60
2019-05-17T05:30:28.297Z,9.50
2019-05-17T05:31:02.899Z,9.50
2019-05-17T05:31:37.974Z,9.50
2019-05-17T05:32:13.156Z,9.50
2019-05-17T05:32:47.824Z,9.50
2019-05-17T05:33:22.934Z,9.50
2019-05-17T05:33:58.014Z,9.50
2019-05-17T05:34:32.605Z,9.50
2019-05-17T05:35:08.626Z,9.50
2019-05-17T05:35:43.758Z,9.50
2019-05-17T05:36:18.271Z,9.50
2019-05-17T05:36:53.629Z,9.50
2019-05-17T05:37:28.705Z,9.50
2019-05-17T05:38:03.306Z,9.50
2019-05-17T05:38:38.376Z,9.50
2019-05-17T05:39:13.543Z,9.50
2019-05-17T05:39:48.069Z,9.50
2019-05-17T05:40:23.278Z,9.50
2019-05-17T05:40:58.447Z,9.50
2019-05-17T05:41:32.981Z,9.50
2019-05-17T05:42:11.606Z,9.50
2019-05-17T05:42:44.951Z,9.50
2019-05-17T05:43:19.552Z,9.50
2019-05-17T05:43:54.943Z,9.50
2019-05-17T05:44:31.966Z,9.50
2019-05-17T05:45:06.612Z,9.50
2019-05-17T05:45:41.982Z,9.50
2019-05-17T05:46:17.192Z,9.50
2019-05-17T05:46:51.788Z,9.60
2019-05-17T05:47:26.919Z,9.60
2019-05-17T05:48:01.997Z,9.60
2019-05-17T05:48:36.597Z,9.60
2019-05-17T05:49:12.362Z,9.60
2019-05-17T05:49:47.784Z,9.60
2019-05-17T05:50:23.101Z,9.60
2019-05-17T05:50:58.195Z,9.70
2019-05-17T05:51:33.640Z,9.70
2019-05-17T05:52:08.212Z,9.70
2019-05-17T05:52:43.287Z,9.70
2019-05-17T05:53:18.444Z,9.80
2019-05-17T05:53:53.035Z,9.80
2019-05-17T05:54:28.116Z,9.80
2019-05-17T05:55:03.423Z,9.80
2019-05-17T05:55:38.220Z,9.90
2019-05-17T05:56:13.548Z,9.90
2019-05-17T05:56:48.745Z,9.90
2019-05-17T05:57:23.640Z,9.90
2019-05-17T05:57:58.778Z,9.90
2019-05-17T05:58:33.849Z,9.90
2019-05-17T05:59:08.396Z,10.00
2019-05-17T05:59:43.538Z,10.00
2019-05-17T06:00:19.065Z,10.00
2019-05-17T06:00:53.667Z,10.00
2019-05-17T06:01:28.768Z,10.00
2019-05-17T06:02:03.852Z,10.00
2019-05-17T06:02:38.431Z,10.00
2019-05-17T06:03:13.516Z,10.00
2019-05-17T06:03:48.607Z,10.10
2019-05-17T06:04:23.223Z,10.10
2019-05-17T06:04:58.448Z,10.10
2019-05-17T06:05:33.755Z,10.10
2019-05-17T06:06:08.267Z,10.10
2019-05-17T06:06:43.691Z,10.10
2019-05-17T06:07:21.457Z,10.10
2019-05-17T06:07:55.290Z,10.10
2019-05-17T06:08:32.245Z,10.20
2019-05-17T06:09:11.805Z,10.20
2019-05-17T06:09:45.415Z,10.20
2019-05-17T06:10:21.886Z,10.20
2019-05-17T06:10:57.179Z,10.20
2019-05-17T06:11:32.178Z,10.20
2019-05-17T06:12:18.988Z,10.30
2019-05-17T06:12:44.295Z,10.30
2019-05-17T06:13:18.874Z,10.30
2019-05-17T06:13:53.941Z,10.30
2019-05-17T06:14:29.031Z,10.30
2019-05-17T06:15:05.450Z,10.30
2019-05-17T06:15:42.674Z,10.30
2019-05-17T06:16:17.464Z,10.40
2019-05-17T06:16:52.201Z,10.40
2019-05-17T06:17:27.347Z,10.30
2019-05-17T06:18:04.320Z,10.30
2019-05-17T06:18:38.887Z,10.40
2019-05-17T06:19:13.984Z,10.30
2019-05-17T06:19:51.556Z,10.30
2019-05-17T06:20:25.722Z,10.30
2019-05-17T06:21:03.070Z,10.30
2019-05-17T06:21:38.169Z,10.30
2019-05-17T06:22:12.758Z,10.30
2019-05-17T06:22:48.193Z,10.30
2019-05-17T06:23:23.583Z,10.30
2019-05-17T06:23:58.662Z,10.30
2019-05-17T06:24:33.810Z,10.40
2019-05-17T06:25:09.194Z,10.40
2019-05-17T06:25:43.983Z,10.40
2019-05-17T06:26:19.179Z,10.40
2019-05-17T06:26:54.342Z,10.40
2019-05-17T06:27:28.938Z,10.40
2019-05-17T06:28:04.077Z,10.40
2019-05-17T06:28:39.234Z,10.40
2019-05-17T06:29:14.172Z,10.50
2019-05-17T06:29:51.347Z,10.50
2019-05-17T06:30:26.290Z,10.50
2019-05-17T06:31:02.938Z,10.50
2019-05-17T06:31:37.750Z,10.60
2019-05-17T06:32:12.857Z,10.50
2019-05-17T06:32:47.449Z,10.60
2019-05-17T06:33:30.408Z,10.60
2019-05-17T06:34:01.848Z,10.60
2019-05-17T06:34:35.894Z,10.60
2019-05-17T06:35:12.578Z,10.60
2019-05-17T06:35:48.101Z,10.60
2019-05-17T06:36:22.833Z,10.70
2019-05-17T06:36:57.975Z,10.70
2019-05-17T06:37:33.153Z,10.70
2019-05-17T06:38:07.757Z,10.70
2019-05-17T06:38:43.098Z,10.70
2019-05-17T06:39:18.642Z,10.70
2019-05-17T06:39:53.242Z,10.60
2019-05-17T06:40:28.791Z,10.60
2019-05-17T06:41:03.942Z,10.70
2019-05-17T06:41:38.472Z,10.70
2019-05-17T06:42:13.665Z,10.70
2019-05-17T06:42:48.893Z,10.70
2019-05-17T06:43:23.796Z,10.70
2019-05-17T06:43:58.968Z,10.70
2019-05-17T06:44:34.124Z,10.80
2019-05-17T06:45:09.110Z,10.80
2019-05-17T06:45:44.336Z,10.80
2019-05-17T06:46:21.814Z,10.80
2019-05-17T06:46:55.745Z,10.90
2019-05-17T06:47:32.783Z,10.90
2019-05-17T06:48:07.608Z,10.90
2019-05-17T06:48:42.427Z,11.00
2019-05-17T06:49:17.712Z,11.00
2019-05-17T06:49:53.454Z,11.00
2019-05-17T06:50:28.296Z,11.00
2019-05-17T06:51:03.521Z,11.00
2019-05-17T06:51:38.695Z,11.00
2019-05-17T06:52:13.308Z,11.00
2019-05-17T06:52:48.548Z,10.90
2019-05-17T06:53:23.722Z,11.00
2019-05-17T06:53:58.312Z,11.00
2019-05-17T06:54:33.392Z,11.00
2019-05-17T06:55:08.783Z,11.00
2019-05-17T06:55:43.328Z,11.00
2019-05-17T06:56:18.471Z,11.00
2019-05-17T06:56:53.720Z,11.00
2019-05-17T06:57:28.347Z,11.10
2019-05-17T06:58:03.499Z,11.10
2019-05-17T06:58:38.657Z,11.10
2019-05-17T06:59:13.255Z,11.10
2019-05-17T06:59:48.340Z,11.10
2019-05-17T07:00:24.368Z,11.20
2019-05-17T07:00:59.977Z,11.20
2019-05-17T07:01:35.040Z,11.20
2019-05-17T07:02:10.506Z,11.20
2019-05-17T07:02:45.108Z,11.20
2019-05-17T07:03:20.271Z,11.20
2019-05-17T07:03:55.487Z,11.20
2019-05-17T07:04:30.090Z,11.30
2019-05-17T07:05:09.888Z,11.30
2019-05-17T07:05:50.215Z,11.30
2019-05-17T07:06:26.527Z,11.40
2019-05-17T07:07:20.717Z,11.40
2019-05-17T07:07:56.031Z,11.40
2019-05-17T07:08:30.644Z,11.40
2019-05-17T07:09:07.029Z,11.50
2019-05-17T07:09:42.236Z,11.50
2019-05-17T07:10:19.465Z,11.50
2019-05-17T07:10:53.786Z,11.50
2019-05-17T07:11:30.331Z,11.50
2019-05-17T07:12:05.176Z,11.60
2019-05-17T07:12:54.477Z,11.50
2019-05-17T07:13:17.157Z,11.50
2019-05-17T07:13:51.701Z,11.60
2019-05-17T07:14:26.787Z,11.60
2019-05-17T07:15:02.175Z,11.60
2019-05-17T07:15:46.809Z,11.60
2019-05-17T07:16:13.902Z,11.60
2019-05-17T07:16:50.101Z,11.60
2019-05-17T07:17:24.850Z,11.70
2019-05-17T07:18:00.108Z,11.70
2019-05-17T07:18:35.239Z,11.60
2019-05-17T07:19:10.375Z,11.70
2019-05-17T07:19:45.767Z,11.70
2019-05-17T07:20:20.990Z,11.70
2019-05-17T07:20:55.505Z,11.70
2019-05-17T07:21:30.622Z,11.70
2019-05-17T07:22:05.754Z,11.70
2019-05-17T07:22:41.131Z,11.80
2019-05-17T07:23:16.432Z,11.80
2019-05-17T07:23:51.629Z,11.80
2019-05-17T07:24:26.148Z,11.80
2019-05-17T07:25:01.464Z,11.90
2019-05-17T07:25:36.645Z,11.80
2019-05-17T07:26:12.221Z,11.90
2019-05-17T07:26:49.717Z,11.90
2019-05-17T07:27:37.600Z,11.90
2019-05-17T07:28:00.638Z,12.00
2019-05-17T07:28:35.722Z,12.00
2019-05-17T07:29:11.017Z,12.00
2019-05-17T07:29:45.614Z,12.00
2019-05-17T07:30:22.524Z,12.10
2019-05-17T07:30:59.703Z,12.10
2019-05-17T07:31:33.903Z,12.10
2019-05-17T07:32:09.790Z,12.20
2019-05-17T07:32:45.242Z,12.20
2019-05-17T07:33:20.041Z,12.20
2019-05-17T07:33:55.277Z,12.20
2019-05-17T07:34:31.148Z,12.20
2019-05-17T07:35:06.604Z,12.20
2019-05-17T07:35:41.751Z,12.20
2019-05-17T07:36:16.933Z,12.20
2019-05-17T07:36:51.546Z,12.20
2019-05-17T07:37:26.721Z,12.30
2019-05-17T07:38:01.972Z,12.30
2019-05-17T07:38:36.616Z,12.30
2019-05-17T07:39:12.274Z,12.30
2019-05-17T07:40:00.427Z,12.30
2019-05-17T07:40:23.892Z,12.30
2019-05-17T07:41:00.181Z,12.30
2019-05-17T07:41:40.198Z,12.40
2019-05-17T07:42:14.876Z,12.40
2019-05-17T07:42:50.224Z,12.40
2019-05-17T07:43:25.400Z,12.40
2019-05-17T07:44:00.392Z,12.40
2019-05-17T07:44:35.643Z,12.40
2019-05-17T07:45:12.512Z,12.40
2019-05-17T07:45:49.467Z,12.40
2019-05-17T07:46:23.851Z,12.40
2019-05-17T07:47:00.136Z,12.40
2019-05-17T07:47:34.849Z,12.40
2019-05-17T07:48:10.224Z,12.40